Airfield :
LOGIN :

Register | Disclaimer

   EN    FR    IT 

 










Legend :    VFR   Marginal VFR   IFR   Intensive IFR   Very Intensive IFR
Visi :
Ceiling :
>= 8 km
>= 3000ft
5 to 8 km
1000 to 3000 ft
1500m to 5 km
500 to 1000 ft
800 to 1500m
200 to 500 ft
< 800m
< 200 ft
Symbols :   Thunderstorms  Fog  Heavy snow  Heavy precipitations  Wind > 20 kt
SIGMETs :     Misc.  Thunderstorms  Icing  Turbulence  Mountain Waves  Volcanic Ashes






- Airport Elevation : 659 ft
- IATA code : LGG


EBLG - Liège

CURRENT METAR :
  • 280420Z 13008KT 7000 NSC 08/04 Q1017 NOSIG

EXPIRED METARs :
  • 280350Z 14007KT 120V210 7000 NSC 07/04 Q1017 NOSIG
  • 280320Z 14007KT 7000 NSC 07/04 Q1017 NOSIG
  • 280250Z 14008KT 7000 NSC 06/04 Q1018 NOSIG
  • 280220Z 13005KT 7000 NSC 05/04 Q1018 NOSIG
  • 280150Z 14003KT 120V180 7000 NSC 06/05 Q1018 NOSIG

TAF TAF EBLG
Valid from the 28 at 00:00 until the 29 at 06:00 UTC


272305Z 2800/2906 12003KT 8000 NSC
PROB30 2800/2807 4500 BR
BECMG 2822/2900 4500 BR BKN004
PROB30 2901/2906 0500 FG BKN002



MET'MAP, your aeronautical weather chart ! - Copyright ORBIFLY December 2007 - Disclaimer

ORBIFLY MET'MAP TEAM :

Programming & Development : Alexandra Zaïnal
Concept & original design : Baudouin d'Aumeries
Assistance for programming : Marc-Olivier Méhu
Technical & hardware support : Manuel Goepfert

Contact : metmap@orbifly.com




SOURCES & CREDITS :

   NOAA